createdAt,value
2017-03-25T00:07:28.102Z,8
2017-03-25T00:17:28.123Z,9
2017-03-25T00:27:27.779Z,9
2017-03-25T00:37:28.049Z,9
2017-03-25T00:47:28.668Z,8
2017-03-25T00:57:27.822Z,9
2017-03-25T01:07:27.759Z,9
2017-03-25T01:17:29.216Z,9
2017-03-25T01:27:28.082Z,9
2017-03-25T01:37:28.615Z,8
2017-03-25T01:47:29.948Z,10
2017-03-25T01:57:27.727Z,9
2017-03-25T02:07:27.851Z,9
2017-03-25T02:17:27.823Z,9
2017-03-25T02:27:27.700Z,8
2017-03-25T02:37:27.672Z,9
2017-03-25T02:47:27.880Z,9
2017-03-25T02:57:27.849Z,9
2017-03-25T03:07:27.744Z,9
2017-03-25T03:17:27.764Z,10
2017-03-25T03:27:27.835Z,10
2017-03-25T03:37:27.644Z,10
2017-03-25T03:47:27.740Z,11
2017-03-25T03:57:27.705Z,11
2017-03-25T04:07:27.606Z,12
2017-03-25T04:17:27.713Z,12
2017-03-25T04:27:27.670Z,15
2017-03-25T04:37:27.668Z,14
2017-03-25T04:47:27.657Z,14
2017-03-25T04:57:27.594Z,16
2017-03-25T05:07:27.594Z,15
2017-03-25T05:17:27.686Z,16
2017-03-25T05:27:27.662Z,18
2017-03-25T05:37:27.737Z,17
2017-03-25T05:47:27.655Z,19
2017-03-25T05:57:27.640Z,17
2017-03-25T06:07:27.705Z,17
2017-03-25T06:17:27.598Z,17
2017-03-25T06:27:27.676Z,16
2017-03-25T06:37:27.681Z,17
2017-03-25T06:47:27.604Z,18
2017-03-25T06:57:27.684Z,18
2017-03-25T07:07:27.671Z,16
2017-03-25T07:17:27.601Z,13
2017-03-25T07:27:27.593Z,14
2017-03-25T07:37:27.650Z,14
2017-03-25T07:47:27.605Z,13
2017-03-25T07:57:27.631Z,11
2017-03-25T08:07:27.599Z,10
2017-03-25T08:17:27.586Z,10
2017-03-25T08:27:27.551Z,8
2017-03-25T08:37:27.591Z,8
2017-03-25T08:47:27.515Z,8
2017-03-25T08:57:27.627Z,7
2017-03-25T09:07:27.636Z,6
2017-03-25T09:17:27.647Z,8
2017-03-25T09:27:27.798Z,7
2017-03-25T09:37:45.485Z,7
2017-03-25T09:47:27.710Z,10
2017-03-25T09:57:27.586Z,7
2017-03-25T10:07:27.626Z,7
2017-03-25T10:17:27.692Z,8
2017-03-25T10:27:27.688Z,9
2017-03-25T10:37:27.668Z,9
2017-03-25T10:47:27.606Z,7
2017-03-25T10:57:27.705Z,7
2017-03-25T11:07:27.706Z,7
2017-03-25T11:17:27.570Z,6
2017-03-25T11:27:27.524Z,7
2017-03-25T11:37:27.653Z,6
2017-03-25T11:47:28.082Z,5
2017-03-25T11:57:27.842Z,5
2017-03-25T12:07:27.713Z,4
2017-03-25T12:17:27.791Z,4
2017-03-25T12:27:28.755Z,2
2017-03-25T12:37:27.724Z,2
2017-03-25T12:47:27.688Z,2
2017-03-25T12:57:27.752Z,2
2017-03-25T13:07:27.869Z,2
2017-03-25T13:17:27.661Z,2
2017-03-25T13:27:27.671Z,2
2017-03-25T13:37:27.827Z,3
2017-03-25T13:47:27.720Z,2
2017-03-25T13:57:27.566Z,1
2017-03-25T14:07:27.593Z,1
2017-03-25T14:17:27.593Z,2
2017-03-25T14:27:27.582Z,2
2017-03-25T14:37:27.782Z,2
2017-03-25T14:47:27.538Z,3
2017-03-25T14:57:27.527Z,3
2017-03-25T15:07:27.538Z,3
2017-03-25T15:17:27.600Z,2
2017-03-25T15:27:27.599Z,3
2017-03-25T15:37:27.521Z,2
2017-03-25T15:47:27.534Z,3
2017-03-25T15:57:27.562Z,2
2017-03-25T16:07:27.553Z,3
2017-03-25T16:17:27.584Z,3
2017-03-25T16:27:27.584Z,3
2017-03-25T16:37:27.634Z,2
2017-03-25T16:47:27.545Z,2
2017-03-25T16:57:27.579Z,4
2017-03-25T17:07:27.578Z,3
2017-03-25T17:17:27.514Z,3
2017-03-25T17:27:27.660Z,3
2017-03-25T17:37:27.549Z,2
2017-03-25T17:47:27.588Z,3
2017-03-25T17:57:27.563Z,2
2017-03-25T18:07:27.559Z,3
2017-03-25T18:17:27.545Z,3
2017-03-25T18:27:27.532Z,3
2017-03-25T18:37:27.540Z,4
2017-03-25T18:47:27.561Z,4
2017-03-25T18:57:27.616Z,4
2017-03-25T19:07:27.532Z,4
2017-03-25T19:17:27.573Z,5
2017-03-25T19:27:27.574Z,5
2017-03-25T19:37:27.532Z,5
2017-03-25T19:47:27.531Z,5
2017-03-25T19:57:27.545Z,5
2017-03-25T20:07:27.530Z,4
2017-03-25T20:17:27.529Z,4
2017-03-25T20:27:27.514Z,4
2017-03-25T20:37:27.542Z,5
2017-03-25T20:47:27.535Z,5
2017-03-25T20:57:27.502Z,4
2017-03-25T21:07:27.593Z,5
2017-03-25T21:17:27.589Z,4
2017-03-25T21:27:27.546Z,4
2017-03-25T21:37:27.516Z,5
2017-03-25T21:47:27.548Z,5
2017-03-25T21:57:27.540Z,6
2017-03-25T22:07:27.530Z,6
2017-03-25T22:17:27.533Z,6
2017-03-25T22:27:27.537Z,6
2017-03-25T22:37:27.539Z,6
2017-03-25T22:47:27.540Z,7
2017-03-25T22:57:27.724Z,7
2017-03-25T23:07:27.528Z,7
2017-03-25T23:17:27.600Z,7
2017-03-25T23:27:27.525Z,8
2017-03-25T23:37:27.594Z,7
2017-03-25T23:47:27.582Z,7
2017-03-25T23:57:27.522Z,7
